WSW230 CYEG-CYXU
Flight info
| Callsign | WSW230 |
|---|---|
| Flight time | 3h 16m |
| Altitude | 35000 |
| Route | RYLEY DCT WAINN Q971 TAGOT Q908 MUTUR/N0459F370 Q908 KOBID Q845 OTLUR DCT GOVIT DCT CIBPA DCT GLR DCT YXU |
| Aircraft | B38M/M-SDE1FGHILORVWXY/HB1 |
Departure
| Time | 2026-04-28 10:46 |
|---|---|
| Airport | Edmonton International Airport (CYEG) |
Arrival
| Time | 2026-04-28 14:03 |
|---|---|
| Airport | London International Airport (CYXU) |
| Time | Latitude | Longitude | Altitude | Speed | Heading |
|---|---|---|---|---|---|
| 2026-04-28 10:23 | 53.30865 | -113.58605 | 2377 ft | 0 kts | 86° |
| 2026-04-28 10:35 | 53.30865 | -113.58619 | 2389 ft | 4 kts | 86° |
| 2026-04-28 10:35 | 53.30863 | -113.58664 | 2394 ft | 4 kts | 86° |
| 2026-04-28 10:36 | 53.30862 | -113.58694 | 2395 ft | 4 kts | 86° |
| 2026-04-28 10:36 | 53.30860 | -113.58739 | 2394 ft | 4 kts | 86° |
| 2026-04-28 10:36 | 53.30858 | -113.58784 | 2389 ft | 4 kts | 86° |
| 2026-04-28 10:36 | 53.30857 | -113.58827 | 2386 ft | 2 kts | 85° |
| 2026-04-28 10:37 | 53.30850 | -113.58862 | 2386 ft | 4 kts | 44° |
| 2026-04-28 10:37 | 53.30828 | -113.58880 | 2390 ft | 4 kts | 8° |
| 2026-04-28 10:37 | 53.30803 | -113.58882 | 2389 ft | 2 kts | 356° |
| 2026-04-28 10:37 | 53.30801 | -113.58881 | 2389 ft | 0 kts | 356° |
| 2026-04-28 10:40 | 53.30802 | -113.58882 | 2386 ft | 1 kts | 356° |
| 2026-04-28 10:41 | 53.30811 | -113.58883 | 2388 ft | 2 kts | 355° |
| 2026-04-28 10:41 | 53.30840 | -113.58912 | 2390 ft | 8 kts | 307° |
| 2026-04-28 10:41 | 53.30845 | -113.59022 | 2386 ft | 11 kts | 266° |
| 2026-04-28 10:41 | 53.30839 | -113.59170 | 2386 ft | 14 kts | 265° |
| 2026-04-28 10:42 | 53.30831 | -113.59341 | 2386 ft | 15 kts | 265° |
| 2026-04-28 10:42 | 53.30832 | -113.59410 | 2386 ft | 0 kts | 281° |
| 2026-04-28 10:42 | 53.30827 | -113.59414 | 2386 ft | 1 kts | 193° |
| 2026-04-28 10:42 | 53.30800 | -113.59372 | 2386 ft | 10 kts | 133° |
| 2026-04-28 10:43 | 53.30744 | -113.59346 | 2386 ft | 6 kts | 223° |
| 2026-04-28 10:43 | 53.30705 | -113.59412 | 2386 ft | 9 kts | 220° |
| 2026-04-28 10:43 | 53.30649 | -113.59483 | 2385 ft | 11 kts | 217° |
| 2026-04-28 10:43 | 53.30587 | -113.59518 | 2387 ft | 5 kts | 135° |
| 2026-04-28 10:44 | 53.30575 | -113.59497 | 2386 ft | 0 kts | 133° |
| 2026-04-28 10:44 | 53.30573 | -113.59494 | 2384 ft | 1 kts | 133° |
| 2026-04-28 10:44 | 53.30573 | -113.59493 | 2384 ft | 0 kts | 133° |
| 2026-04-28 10:45 | 53.30566 | -113.59480 | 2384 ft | 9 kts | 133° |
| 2026-04-28 10:45 | 53.30347 | -113.59105 | 2386 ft | 82 kts | 135° |
| 2026-04-28 10:46 | 53.29788 | -113.58170 | 2390 ft | 146 kts | 135° |
| 2026-04-28 10:46 | 53.28985 | -113.56826 | 2669 ft | 175 kts | 134° |
| 2026-04-28 10:46 | 53.28129 | -113.55329 | 3526 ft | 182 kts | 136° |
| 2026-04-28 10:46 | 53.27225 | -113.53757 | 4252 ft | 193 kts | 135° |
| 2026-04-28 10:47 | 53.26248 | -113.52066 | 4647 ft | 216 kts | 137° |
| 2026-04-28 10:47 | 53.25095 | -113.50247 | 5048 ft | 239 kts | 137° |
| 2026-04-28 10:47 | 53.23856 | -113.48249 | 5655 ft | 252 kts | 136° |
| 2026-04-28 10:47 | 53.22727 | -113.46022 | 6577 ft | 255 kts | 117° |
| 2026-04-28 10:48 | 53.22277 | -113.43163 | 7411 ft | 262 kts | 91° |
| 2026-04-28 10:48 | 53.22470 | -113.40057 | 7915 ft | 278 kts | 80° |
| 2026-04-28 10:48 | 53.22644 | -113.36785 | 8644 ft | 284 kts | 84° |
| 2026-04-28 10:48 | 53.22784 | -113.33482 | 9556 ft | 288 kts | 83° |
| 2026-04-28 10:49 | 53.22936 | -113.30134 | 10358 ft | 292 kts | 83° |
| 2026-04-28 10:49 | 53.23095 | -113.26650 | 10797 ft | 310 kts | 83° |
| 2026-04-28 10:49 | 53.23261 | -113.22964 | 11212 ft | 326 kts | 83° |
| 2026-04-28 10:49 | 53.23437 | -113.19126 | 11814 ft | 335 kts | 83° |
| 2026-04-28 10:50 | 53.23619 | -113.15234 | 12590 ft | 338 kts | 83° |
| 2026-04-28 10:50 | 53.23803 | -113.11294 | 13388 ft | 342 kts | 83° |
| 2026-04-28 10:50 | 53.23989 | -113.07315 | 14140 ft | 346 kts | 83° |
| 2026-04-28 10:50 | 53.24176 | -113.03302 | 14830 ft | 349 kts | 83° |
| 2026-04-28 10:51 | 53.24364 | -112.99249 | 15538 ft | 352 kts | 83° |
| 2026-04-28 10:51 | 53.24552 | -112.95156 | 16239 ft | 355 kts | 83° |
| 2026-04-28 10:51 | 53.24740 | -112.91025 | 16932 ft | 358 kts | 83° |
| 2026-04-28 10:51 | 53.24928 | -112.86854 | 17618 ft | 362 kts | 83° |
| 2026-04-28 10:52 | 53.25117 | -112.82648 | 18293 ft | 365 kts | 82° |
| 2026-04-28 10:52 | 53.25305 | -112.78411 | 18862 ft | 368 kts | 82° |
| 2026-04-28 10:52 | 53.25494 | -112.74127 | 19411 ft | 371 kts | 82° |
| 2026-04-28 10:52 | 53.25683 | -112.69812 | 19946 ft | 374 kts | 82° |
| 2026-04-28 10:53 | 53.25873 | -112.65458 | 20489 ft | 377 kts | 82° |
| 2026-04-28 10:53 | 53.26062 | -112.61068 | 21015 ft | 381 kts | 82° |
| 2026-04-28 10:53 | 53.26250 | -112.56645 | 21568 ft | 384 kts | 82° |
| 2026-04-28 10:53 | 53.26440 | -112.52186 | 22128 ft | 386 kts | 82° |
| 2026-04-28 10:54 | 53.26628 | -112.47705 | 22635 ft | 389 kts | 82° |
| 2026-04-28 10:54 | 53.26816 | -112.43177 | 23141 ft | 392 kts | 82° |
| 2026-04-28 10:54 | 53.27004 | -112.38624 | 23645 ft | 395 kts | 82° |
| 2026-04-28 10:54 | 53.27178 | -112.34022 | 24056 ft | 399 kts | 85° |
| 2026-04-28 10:55 | 53.26815 | -112.29390 | 24506 ft | 407 kts | 101° |
| 2026-04-28 10:55 | 53.26131 | -112.24845 | 24873 ft | 411 kts | 100° |
| 2026-04-28 10:55 | 53.25426 | -112.20142 | 25271 ft | 413 kts | 101° |
| 2026-04-28 10:55 | 53.24711 | -112.15475 | 25666 ft | 416 kts | 101° |
| 2026-04-28 10:56 | 53.23992 | -112.10847 | 26038 ft | 419 kts | 101° |
| 2026-04-28 10:56 | 53.23256 | -112.06125 | 26427 ft | 421 kts | 101° |
| 2026-04-28 10:56 | 53.22513 | -112.01383 | 26802 ft | 424 kts | 101° |
| 2026-04-28 10:56 | 53.21765 | -111.96612 | 27202 ft | 426 kts | 101° |
| 2026-04-28 10:57 | 53.21010 | -111.91818 | 27557 ft | 429 kts | 101° |
| 2026-04-28 10:57 | 53.20247 | -111.86993 | 27894 ft | 432 kts | 101° |
| 2026-04-28 10:57 | 53.19478 | -111.82140 | 28257 ft | 434 kts | 101° |
| 2026-04-28 10:57 | 53.18702 | -111.77253 | 28599 ft | 437 kts | 101° |
| 2026-04-28 10:58 | 53.17920 | -111.72351 | 28941 ft | 439 kts | 101° |
| 2026-04-28 10:58 | 53.17134 | -111.67429 | 29278 ft | 441 kts | 101° |
| 2026-04-28 10:58 | 53.16341 | -111.62480 | 29608 ft | 443 kts | 101° |
| 2026-04-28 10:58 | 53.15540 | -111.57503 | 29923 ft | 446 kts | 101° |
| 2026-04-28 10:59 | 53.14733 | -111.52499 | 30231 ft | 448 kts | 102° |
| 2026-04-28 10:59 | 53.13921 | -111.47479 | 30506 ft | 450 kts | 102° |
| 2026-04-28 10:59 | 53.13104 | -111.42438 | 30763 ft | 452 kts | 102° |
| 2026-04-28 10:59 | 53.12279 | -111.37369 | 31022 ft | 454 kts | 102° |
| 2026-04-28 11:00 | 53.11450 | -111.32283 | 31304 ft | 456 kts | 101° |
| 2026-04-28 11:00 | 53.10614 | -111.27182 | 31560 ft | 458 kts | 101° |
| 2026-04-28 11:00 | 53.09772 | -111.22055 | 31813 ft | 460 kts | 102° |
| 2026-04-28 11:00 | 53.08925 | -111.16905 | 32055 ft | 462 kts | 102° |
| 2026-04-28 11:01 | 53.08071 | -111.11735 | 32277 ft | 465 kts | 102° |
| 2026-04-28 11:01 | 53.07210 | -111.06543 | 32529 ft | 466 kts | 102° |
| 2026-04-28 11:01 | 53.06346 | -111.01342 | 32775 ft | 468 kts | 102° |
| 2026-04-28 11:01 | 53.05477 | -110.96125 | 33092 ft | 468 kts | 102° |
| 2026-04-28 11:02 | 53.04608 | -110.90919 | 33417 ft | 467 kts | 102° |
| 2026-04-28 11:02 | 53.03738 | -110.85717 | 33738 ft | 467 kts | 102° |
| 2026-04-28 11:02 | 53.02784 | -110.80551 | 34045 ft | 468 kts | 104° |
| 2026-04-28 11:02 | 53.01811 | -110.75399 | 34311 ft | 468 kts | 104° |
| 2026-04-28 11:03 | 53.00844 | -110.70245 | 34575 ft | 468 kts | 104° |
| 2026-04-28 11:03 | 52.99875 | -110.65087 | 34787 ft | 468 kts | 104° |
| 2026-04-28 11:03 | 52.98903 | -110.59921 | 35011 ft | 469 kts | 104° |
| 2026-04-28 11:03 | 52.97930 | -110.54757 | 35166 ft | 470 kts | 104° |
| 2026-04-28 11:04 | 52.96952 | -110.49585 | 35169 ft | 469 kts | 104° |
| 2026-04-28 11:04 | 52.94996 | -110.39283 | 35164 ft | 468 kts | 104° |
| 2026-04-28 11:05 | 52.93030 | -110.28983 | 35165 ft | 469 kts | 104° |
| 2026-04-28 11:05 | 52.91052 | -110.18680 | 35163 ft | 469 kts | 104° |
| 2026-04-28 11:06 | 52.89067 | -110.08392 | 35169 ft | 469 kts | 104° |
| 2026-04-28 11:06 | 52.87088 | -109.98189 | 35165 ft | 469 kts | 104° |
| 2026-04-28 11:07 | 52.85084 | -109.87917 | 35164 ft | 469 kts | 104° |
| 2026-04-28 11:07 | 52.83058 | -109.77584 | 35169 ft | 469 kts | 104° |
| 2026-04-28 11:08 | 52.81049 | -109.67392 | 35172 ft | 470 kts | 105° |
| 2026-04-28 11:08 | 52.79014 | -109.57129 | 35170 ft | 470 kts | 105° |
| 2026-04-28 11:09 | 52.76971 | -109.46871 | 35205 ft | 470 kts | 105° |
| 2026-04-28 11:09 | 52.74916 | -109.36614 | 35181 ft | 470 kts | 105° |
| 2026-04-28 11:10 | 52.72855 | -109.26375 | 35178 ft | 470 kts | 105° |
| 2026-04-28 11:10 | 52.70784 | -109.16141 | 35187 ft | 470 kts | 105° |
| 2026-04-28 11:11 | 52.68702 | -109.05910 | 35186 ft | 471 kts | 105° |
| 2026-04-28 11:11 | 52.66612 | -108.95688 | 35190 ft | 471 kts | 105° |
| 2026-04-28 11:12 | 52.64510 | -108.85463 | 35186 ft | 471 kts | 105° |
| 2026-04-28 11:12 | 52.62400 | -108.75251 | 35191 ft | 471 kts | 105° |
| 2026-04-28 11:13 | 52.60281 | -108.65046 | 35202 ft | 471 kts | 106° |
| 2026-04-28 11:13 | 52.58155 | -108.54862 | 35199 ft | 471 kts | 106° |
| 2026-04-28 11:14 | 52.56018 | -108.44673 | 35258 ft | 471 kts | 106° |
| 2026-04-28 11:14 | 52.53870 | -108.34485 | 35167 ft | 471 kts | 106° |
| 2026-04-28 11:15 | 52.51716 | -108.24324 | 35177 ft | 472 kts | 106° |
| 2026-04-28 11:15 | 52.49550 | -108.14154 | 35178 ft | 472 kts | 107° |
| 2026-04-28 11:16 | 52.47375 | -108.03992 | 35175 ft | 472 kts | 107° |
| 2026-04-28 11:16 | 52.45208 | -107.93918 | 35196 ft | 472 kts | 107° |
| 2026-04-28 11:17 | 52.43015 | -107.83775 | 35195 ft | 472 kts | 107° |
| 2026-04-28 11:17 | 52.40814 | -107.73645 | 35198 ft | 472 kts | 107° |
| 2026-04-28 11:18 | 52.38604 | -107.63524 | 35190 ft | 473 kts | 107° |
| 2026-04-28 11:18 | 52.36379 | -107.53380 | 35180 ft | 473 kts | 107° |
| 2026-04-28 11:19 | 52.34147 | -107.43255 | 35170 ft | 473 kts | 108° |
| 2026-04-28 11:19 | 52.31904 | -107.33131 | 35198 ft | 474 kts | 108° |
| 2026-04-28 11:20 | 52.29653 | -107.23022 | 35207 ft | 473 kts | 108° |
| 2026-04-28 11:20 | 52.27394 | -107.12923 | 35200 ft | 473 kts | 108° |
| 2026-04-28 11:21 | 52.25512 | -107.04537 | 35200 ft | 473 kts | 108° |
| 2026-04-28 11:21 | 52.22870 | -106.92816 | 35203 ft | 473 kts | 108° |
| 2026-04-28 11:22 | 52.20590 | -106.82749 | 35120 ft | 473 kts | 108° |
| 2026-04-28 11:22 | 52.18317 | -106.72683 | 35115 ft | 473 kts | 105° |
| 2026-04-28 11:23 | 52.16358 | -106.62469 | 35122 ft | 473 kts | 105° |
| 2026-04-28 11:23 | 52.14686 | -106.53922 | 35123 ft | 472 kts | 105° |
| 2026-04-28 11:24 | 52.12681 | -106.43732 | 35138 ft | 473 kts | 105° |
| 2026-04-28 11:24 | 52.10668 | -106.33559 | 35152 ft | 472 kts | 106° |
| 2026-04-28 11:25 | 52.08645 | -106.23385 | 35194 ft | 473 kts | 106° |
| 2026-04-28 11:25 | 52.06611 | -106.13211 | 35213 ft | 473 kts | 107° |
| 2026-04-28 11:26 | 52.04567 | -106.03039 | 35220 ft | 473 kts | 107° |
| 2026-04-28 11:26 | 52.02529 | -105.92953 | 35214 ft | 473 kts | 107° |
| 2026-04-28 11:27 | 52.00468 | -105.82803 | 35221 ft | 473 kts | 107° |
| 2026-04-28 11:27 | 51.98399 | -105.72668 | 35217 ft | 473 kts | 107° |
| 2026-04-28 11:28 | 51.96325 | -105.62544 | 35210 ft | 473 kts | 107° |
| 2026-04-28 11:28 | 51.94242 | -105.52419 | 35213 ft | 474 kts | 107° |
| 2026-04-28 11:29 | 51.92152 | -105.42292 | 35217 ft | 474 kts | 107° |
| 2026-04-28 11:29 | 51.90053 | -105.32178 | 35213 ft | 474 kts | 107° |
| 2026-04-28 11:30 | 51.87945 | -105.22074 | 35223 ft | 474 kts | 108° |
| 2026-04-28 11:30 | 51.84774 | -105.06936 | 35218 ft | 474 kts | 108° |
| 2026-04-28 11:31 | 51.82655 | -104.96857 | 35219 ft | 473 kts | 108° |
| 2026-04-28 11:31 | 51.80526 | -104.86781 | 35209 ft | 474 kts | 108° |
| 2026-04-28 11:32 | 51.78389 | -104.76712 | 35213 ft | 474 kts | 108° |
| 2026-04-28 11:32 | 51.76242 | -104.66652 | 35219 ft | 474 kts | 108° |
| 2026-04-28 11:33 | 51.74087 | -104.56603 | 35210 ft | 474 kts | 108° |
| 2026-04-28 11:33 | 51.71923 | -104.46561 | 35210 ft | 474 kts | 108° |
| 2026-04-28 11:34 | 51.69751 | -104.36528 | 35208 ft | 474 kts | 109° |
| 2026-04-28 11:34 | 51.67571 | -104.26507 | 35205 ft | 474 kts | 109° |
| 2026-04-28 11:35 | 51.65380 | -104.16490 | 35198 ft | 474 kts | 109° |
| 2026-04-28 11:35 | 51.63186 | -104.06505 | 35202 ft | 473 kts | 109° |
| 2026-04-28 11:36 | 51.60981 | -103.96520 | 35196 ft | 473 kts | 109° |
| 2026-04-28 11:36 | 51.58770 | -103.86554 | 35195 ft | 473 kts | 109° |
| 2026-04-28 11:37 | 51.56566 | -103.76665 | 35192 ft | 473 kts | 109° |
| 2026-04-28 11:37 | 51.54336 | -103.66710 | 35193 ft | 473 kts | 109° |
| 2026-04-28 11:38 | 51.52101 | -103.56775 | 35197 ft | 473 kts | 109° |
| 2026-04-28 11:38 | 51.49859 | -103.46861 | 35185 ft | 472 kts | 110° |
| 2026-04-28 11:39 | 51.47610 | -103.36963 | 35189 ft | 472 kts | 110° |
| 2026-04-28 11:39 | 51.45357 | -103.27090 | 35189 ft | 472 kts | 110° |
| 2026-04-28 11:40 | 51.43093 | -103.17215 | 35185 ft | 472 kts | 110° |
| 2026-04-28 11:40 | 51.40821 | -103.07353 | 35187 ft | 472 kts | 110° |
| 2026-04-28 11:41 | 51.38540 | -102.97500 | 35186 ft | 471 kts | 110° |
| 2026-04-28 11:41 | 51.36256 | -102.87674 | 35187 ft | 471 kts | 110° |
| 2026-04-28 11:42 | 51.33963 | -102.77859 | 35185 ft | 471 kts | 110° |
| 2026-04-28 11:42 | 51.31665 | -102.68060 | 35126 ft | 471 kts | 110° |
| 2026-04-28 11:43 | 51.29360 | -102.58268 | 35109 ft | 471 kts | 110° |
| 2026-04-28 11:43 | 51.27064 | -102.48551 | 35110 ft | 471 kts | 110° |
| 2026-04-28 11:44 | 51.25014 | -102.38645 | 35112 ft | 469 kts | 108° |
| 2026-04-28 11:44 | 51.22971 | -102.28752 | 35116 ft | 469 kts | 108° |
| 2026-04-28 11:45 | 51.20917 | -102.18878 | 35173 ft | 469 kts | 108° |
| 2026-04-28 11:45 | 51.18853 | -102.09012 | 35221 ft | 469 kts | 108° |
| 2026-04-28 11:46 | 51.16780 | -101.99148 | 35214 ft | 469 kts | 108° |
| 2026-04-28 11:46 | 51.14700 | -101.89302 | 35221 ft | 469 kts | 109° |
| 2026-04-28 11:47 | 51.12615 | -101.79475 | 35215 ft | 468 kts | 109° |
| 2026-04-28 11:47 | 51.10521 | -101.69658 | 35211 ft | 468 kts | 109° |
| 2026-04-28 11:48 | 51.08420 | -101.59851 | 35213 ft | 468 kts | 109° |
| 2026-04-28 11:48 | 51.06310 | -101.50055 | 35213 ft | 468 kts | 109° |
| 2026-04-28 11:49 | 51.04193 | -101.40268 | 35208 ft | 468 kts | 109° |
| 2026-04-28 11:49 | 51.02068 | -101.30497 | 35192 ft | 467 kts | 109° |
| 2026-04-28 11:50 | 50.99940 | -101.20752 | 35203 ft | 467 kts | 109° |
| 2026-04-28 11:50 | 50.97802 | -101.11010 | 35197 ft | 467 kts | 109° |
| 2026-04-28 11:51 | 50.95656 | -101.01278 | 35201 ft | 467 kts | 109° |
| 2026-04-28 11:51 | 50.93502 | -100.91554 | 35197 ft | 467 kts | 110° |
| 2026-04-28 11:52 | 50.91339 | -100.81839 | 35199 ft | 467 kts | 110° |
| 2026-04-28 11:52 | 50.89185 | -100.72203 | 35193 ft | 467 kts | 110° |
| 2026-04-28 11:53 | 50.87007 | -100.62508 | 35196 ft | 467 kts | 110° |
| 2026-04-28 11:53 | 50.84823 | -100.52832 | 35186 ft | 467 kts | 110° |
| 2026-04-28 11:54 | 50.82628 | -100.43149 | 35198 ft | 467 kts | 110° |
| 2026-04-28 11:54 | 50.80427 | -100.33485 | 35197 ft | 467 kts | 111° |
| 2026-04-28 11:55 | 50.78218 | -100.23830 | 35193 ft | 467 kts | 111° |
| 2026-04-28 11:55 | 50.75999 | -100.14175 | 35191 ft | 467 kts | 111° |
| 2026-04-28 11:56 | 50.73775 | -100.04542 | 35191 ft | 467 kts | 111° |
| 2026-04-28 11:56 | 50.71541 | -99.94909 | 35196 ft | 467 kts | 111° |
| 2026-04-28 11:57 | 50.69300 | -99.85289 | 35187 ft | 467 kts | 111° |
| 2026-04-28 11:57 | 50.67053 | -99.75690 | 35190 ft | 466 kts | 111° |
| 2026-04-28 11:58 | 50.64801 | -99.66107 | 35183 ft | 466 kts | 111° |
| 2026-04-28 11:58 | 50.62542 | -99.56539 | 35184 ft | 466 kts | 111° |
| 2026-04-28 11:59 | 50.60273 | -99.46971 | 35183 ft | 466 kts | 111° |
| 2026-04-28 11:59 | 50.58000 | -99.37427 | 35184 ft | 466 kts | 111° |
| 2026-04-28 12:00 | 50.55716 | -99.27885 | 35178 ft | 466 kts | 112° |
| 2026-04-28 12:00 | 50.53429 | -99.18366 | 35182 ft | 465 kts | 112° |
| 2026-04-28 12:01 | 50.51136 | -99.08863 | 35172 ft | 465 kts | 112° |
| 2026-04-28 12:01 | 50.48852 | -98.99426 | 35179 ft | 465 kts | 112° |
| 2026-04-28 12:02 | 50.46546 | -98.89941 | 35177 ft | 465 kts | 112° |
| 2026-04-28 12:02 | 50.44234 | -98.80467 | 35177 ft | 465 kts | 112° |
| 2026-04-28 12:03 | 50.41798 | -98.71084 | 35166 ft | 463 kts | 120° |
| 2026-04-28 12:03 | 50.38800 | -98.62150 | 35188 ft | 463 kts | 119° |
| 2026-04-28 12:04 | 50.35789 | -98.53219 | 35168 ft | 464 kts | 120° |
| 2026-04-28 12:04 | 50.32772 | -98.44307 | 35128 ft | 463 kts | 120° |
| 2026-04-28 12:05 | 50.29749 | -98.35407 | 35124 ft | 463 kts | 120° |
| 2026-04-28 12:05 | 50.26716 | -98.26513 | 35128 ft | 463 kts | 120° |
| 2026-04-28 12:06 | 50.23686 | -98.17654 | 35127 ft | 462 kts | 120° |
| 2026-04-28 12:06 | 50.20649 | -98.08806 | 35129 ft | 462 kts | 120° |
| 2026-04-28 12:07 | 50.17605 | -97.99970 | 35127 ft | 462 kts | 120° |
| 2026-04-28 12:07 | 50.14553 | -97.91144 | 35120 ft | 462 kts | 120° |
| 2026-04-28 12:08 | 50.11497 | -97.82331 | 35117 ft | 463 kts | 120° |
| 2026-04-28 12:08 | 50.08453 | -97.73588 | 35116 ft | 461 kts | 121° |
| 2026-04-28 12:09 | 50.05398 | -97.64843 | 35107 ft | 460 kts | 121° |
| 2026-04-28 12:09 | 50.02339 | -97.56113 | 35110 ft | 460 kts | 121° |
| 2026-04-28 12:10 | 49.99271 | -97.47389 | 35103 ft | 460 kts | 121° |
| 2026-04-28 12:10 | 49.96197 | -97.38677 | 35102 ft | 460 kts | 121° |
| 2026-04-28 12:11 | 49.93116 | -97.29968 | 35105 ft | 460 kts | 121° |
| 2026-04-28 12:11 | 49.90652 | -97.22585 | 35062 ft | 461 kts | 113° |
| 2026-04-28 12:12 | 49.88333 | -97.13306 | 35072 ft | 461 kts | 114° |
| 2026-04-28 12:12 | 49.86013 | -97.04044 | 35076 ft | 461 kts | 114° |
| 2026-04-28 12:13 | 49.83687 | -96.94783 | 35078 ft | 461 kts | 114° |
| 2026-04-28 12:13 | 49.81369 | -96.85592 | 35080 ft | 461 kts | 114° |
| 2026-04-28 12:14 | 49.79015 | -96.76297 | 35075 ft | 460 kts | 114° |
| 2026-04-28 12:14 | 49.76689 | -96.67150 | 35073 ft | 459 kts | 114° |
| 2026-04-28 12:15 | 49.74340 | -96.57949 | 35083 ft | 461 kts | 114° |
| 2026-04-28 12:15 | 49.71982 | -96.48749 | 35080 ft | 461 kts | 114° |
| 2026-04-28 12:16 | 49.69614 | -96.39552 | 35081 ft | 461 kts | 114° |
| 2026-04-28 12:16 | 49.67241 | -96.30367 | 35056 ft | 460 kts | 114° |
| 2026-04-28 12:17 | 49.64868 | -96.21223 | 35071 ft | 458 kts | 114° |
| 2026-04-28 12:17 | 49.62494 | -96.12107 | 35076 ft | 458 kts | 114° |
| 2026-04-28 12:18 | 49.60112 | -96.03003 | 35078 ft | 458 kts | 114° |
| 2026-04-28 12:18 | 49.57724 | -95.93908 | 35059 ft | 459 kts | 114° |
| 2026-04-28 12:19 | 49.55324 | -95.84794 | 35074 ft | 459 kts | 114° |
| 2026-04-28 12:19 | 49.52672 | -95.75909 | 35076 ft | 455 kts | 118° |
| 2026-04-28 12:20 | 49.49977 | -95.67115 | 35061 ft | 454 kts | 118° |
| 2026-04-28 12:20 | 49.47285 | -95.58313 | 35062 ft | 455 kts | 118° |
| 2026-04-28 12:21 | 49.44589 | -95.49528 | 35055 ft | 454 kts | 118° |
| 2026-04-28 12:21 | 49.41888 | -95.40755 | 35056 ft | 454 kts | 118° |
| 2026-04-28 12:22 | 49.39179 | -95.31988 | 35034 ft | 453 kts | 118° |
| 2026-04-28 12:22 | 49.36476 | -95.23274 | 35046 ft | 452 kts | 118° |
| 2026-04-28 12:23 | 49.33765 | -95.14561 | 35032 ft | 452 kts | 118° |
| 2026-04-28 12:23 | 49.31049 | -95.05864 | 35031 ft | 452 kts | 118° |
| 2026-04-28 12:24 | 49.28326 | -94.97174 | 35017 ft | 452 kts | 118° |
| 2026-04-28 12:24 | 49.25597 | -94.88498 | 35018 ft | 452 kts | 118° |
| 2026-04-28 12:25 | 49.22868 | -94.79849 | 35012 ft | 449 kts | 119° |
| 2026-04-28 12:25 | 49.20166 | -94.71315 | 34980 ft | 449 kts | 119° |
| 2026-04-28 12:26 | 49.17425 | -94.62692 | 34993 ft | 452 kts | 119° |
| 2026-04-28 12:26 | 49.14675 | -94.54067 | 34966 ft | 451 kts | 119° |
| 2026-04-28 12:27 | 49.11919 | -94.45453 | 34964 ft | 451 kts | 119° |
| 2026-04-28 12:27 | 49.09157 | -94.36853 | 34946 ft | 450 kts | 119° |
| 2026-04-28 12:28 | 49.06405 | -94.28306 | 34951 ft | 449 kts | 119° |
| 2026-04-28 12:28 | 49.03648 | -94.19777 | 34951 ft | 449 kts | 119° |
| 2026-04-28 12:29 | 48.99498 | -94.06995 | 34947 ft | 449 kts | 119° |
| 2026-04-28 12:30 | 48.96715 | -93.98456 | 34941 ft | 451 kts | 120° |
| 2026-04-28 12:30 | 48.93921 | -93.89915 | 34941 ft | 450 kts | 120° |
| 2026-04-28 12:31 | 48.91123 | -93.81393 | 34926 ft | 450 kts | 120° |
| 2026-04-28 12:31 | 48.88320 | -93.72879 | 34926 ft | 450 kts | 120° |
| 2026-04-28 12:32 | 48.85532 | -93.64441 | 34908 ft | 450 kts | 120° |
| 2026-04-28 12:32 | 48.82717 | -93.55948 | 34899 ft | 450 kts | 120° |
| 2026-04-28 12:33 | 48.79896 | -93.47466 | 34875 ft | 450 kts | 120° |
| 2026-04-28 12:33 | 48.77075 | -93.39015 | 34886 ft | 449 kts | 120° |
| 2026-04-28 12:34 | 48.74251 | -93.30579 | 34882 ft | 449 kts | 120° |
| 2026-04-28 12:34 | 48.71421 | -93.22156 | 34882 ft | 449 kts | 120° |
| 2026-04-28 12:35 | 48.68586 | -93.13745 | 34885 ft | 449 kts | 120° |
| 2026-04-28 12:35 | 48.65744 | -93.05340 | 34874 ft | 449 kts | 120° |
| 2026-04-28 12:36 | 48.62902 | -92.96964 | 34874 ft | 446 kts | 120° |
| 2026-04-28 12:36 | 48.60066 | -92.88633 | 34856 ft | 447 kts | 120° |
| 2026-04-28 12:37 | 48.57211 | -92.80272 | 34859 ft | 448 kts | 120° |
| 2026-04-28 12:37 | 48.54353 | -92.71929 | 34843 ft | 448 kts | 120° |
| 2026-04-28 12:38 | 48.51487 | -92.63590 | 34852 ft | 448 kts | 120° |
| 2026-04-28 12:38 | 48.48616 | -92.55263 | 34826 ft | 447 kts | 121° |
| 2026-04-28 12:39 | 48.45749 | -92.46973 | 34834 ft | 446 kts | 121° |
| 2026-04-28 12:39 | 48.42878 | -92.38702 | 34824 ft | 446 kts | 121° |
| 2026-04-28 12:40 | 48.40000 | -92.30434 | 34812 ft | 447 kts | 121° |
| 2026-04-28 12:40 | 48.37104 | -92.22141 | 34813 ft | 448 kts | 121° |
| 2026-04-28 12:41 | 48.34220 | -92.13910 | 34798 ft | 448 kts | 121° |
| 2026-04-28 12:41 | 48.31315 | -92.05647 | 34810 ft | 447 kts | 121° |
| 2026-04-28 12:42 | 48.28410 | -91.97405 | 34804 ft | 446 kts | 121° |
| 2026-04-28 12:42 | 48.25498 | -91.89174 | 34796 ft | 446 kts | 121° |
| 2026-04-28 12:43 | 48.22580 | -91.80950 | 34782 ft | 446 kts | 121° |
| 2026-04-28 12:43 | 48.19656 | -91.72736 | 34780 ft | 447 kts | 121° |
| 2026-04-28 12:44 | 48.16715 | -91.64498 | 34772 ft | 448 kts | 121° |
| 2026-04-28 12:44 | 48.13775 | -91.56290 | 34778 ft | 447 kts | 121° |
| 2026-04-28 12:45 | 48.10829 | -91.48093 | 34764 ft | 447 kts | 121° |
| 2026-04-28 12:45 | 48.07877 | -91.39902 | 34767 ft | 447 kts | 121° |
| 2026-04-28 12:46 | 48.04920 | -91.31722 | 34754 ft | 447 kts | 121° |
| 2026-04-28 12:46 | 48.01957 | -91.23554 | 34745 ft | 447 kts | 122° |
| 2026-04-28 12:47 | 47.98989 | -91.15397 | 34731 ft | 448 kts | 123° |
| 2026-04-28 12:47 | 47.95998 | -91.07199 | 34739 ft | 450 kts | 122° |
| 2026-04-28 12:48 | 47.93002 | -90.99014 | 34723 ft | 449 kts | 122° |
| 2026-04-28 12:48 | 47.90018 | -90.90890 | 34724 ft | 450 kts | 122° |
| 2026-04-28 12:49 | 47.86990 | -90.82670 | 34682 ft | 450 kts | 123° |
| 2026-04-28 12:49 | 47.83997 | -90.74568 | 34686 ft | 449 kts | 123° |
| 2026-04-28 12:50 | 47.80979 | -90.66426 | 34684 ft | 449 kts | 123° |
| 2026-04-28 12:50 | 47.77954 | -90.58283 | 34680 ft | 451 kts | 122° |
| 2026-04-28 12:51 | 47.74914 | -90.50134 | 34669 ft | 451 kts | 122° |
| 2026-04-28 12:51 | 47.71866 | -90.41989 | 34651 ft | 451 kts | 122° |
| 2026-04-28 12:52 | 47.68815 | -90.33856 | 34679 ft | 451 kts | 122° |
| 2026-04-28 12:52 | 47.65756 | -90.25726 | 34678 ft | 451 kts | 122° |
| 2026-04-28 12:53 | 47.62691 | -90.17606 | 34696 ft | 451 kts | 122° |
| 2026-04-28 12:53 | 47.59621 | -90.09499 | 34693 ft | 451 kts | 122° |
| 2026-04-28 12:54 | 47.56543 | -90.01394 | 34689 ft | 453 kts | 122° |
| 2026-04-28 12:54 | 47.53450 | -89.93274 | 34714 ft | 453 kts | 122° |
| 2026-04-28 12:55 | 47.50350 | -89.85161 | 34709 ft | 453 kts | 123° |
| 2026-04-28 12:55 | 47.47246 | -89.77063 | 34710 ft | 453 kts | 123° |
| 2026-04-28 12:56 | 47.44137 | -89.68975 | 34725 ft | 453 kts | 123° |
| 2026-04-28 12:56 | 47.41019 | -89.60887 | 34717 ft | 453 kts | 123° |
| 2026-04-28 12:57 | 47.37897 | -89.52815 | 34726 ft | 453 kts | 123° |
| 2026-04-28 12:57 | 47.35290 | -89.46092 | 34723 ft | 454 kts | 123° |
| 2026-04-28 12:58 | 47.32150 | -89.38015 | 34719 ft | 454 kts | 123° |
| 2026-04-28 12:58 | 47.29004 | -89.29951 | 34726 ft | 454 kts | 123° |
| 2026-04-28 12:59 | 47.25849 | -89.21886 | 34731 ft | 455 kts | 123° |
| 2026-04-28 12:59 | 47.22687 | -89.13827 | 34702 ft | 455 kts | 124° |
| 2026-04-28 13:00 | 47.19518 | -89.05767 | 34729 ft | 456 kts | 124° |
| 2026-04-28 13:00 | 47.16342 | -88.97714 | 34700 ft | 455 kts | 123° |
| 2026-04-28 13:01 | 47.13158 | -88.89661 | 34707 ft | 456 kts | 123° |
| 2026-04-28 13:01 | 47.09965 | -88.81611 | 34724 ft | 457 kts | 124° |
| 2026-04-28 13:02 | 47.06759 | -88.73549 | 34715 ft | 458 kts | 124° |
| 2026-04-28 13:02 | 47.03540 | -88.65479 | 34718 ft | 459 kts | 125° |
| 2026-04-28 13:03 | 47.00312 | -88.57410 | 34722 ft | 458 kts | 124° |
| 2026-04-28 13:03 | 46.97118 | -88.49447 | 34704 ft | 456 kts | 124° |
| 2026-04-28 13:04 | 46.93833 | -88.41509 | 34696 ft | 454 kts | 130° |
| 2026-04-28 13:04 | 46.90073 | -88.34071 | 34684 ft | 456 kts | 130° |
| 2026-04-28 13:05 | 46.86369 | -88.26512 | 34699 ft | 457 kts | 129° |
| 2026-04-28 13:05 | 46.82676 | -88.18948 | 34694 ft | 458 kts | 129° |
| 2026-04-28 13:06 | 46.78977 | -88.11391 | 34694 ft | 456 kts | 129° |
| 2026-04-28 13:06 | 46.75275 | -88.03852 | 34682 ft | 458 kts | 129° |
| 2026-04-28 13:07 | 46.71568 | -87.96316 | 34666 ft | 457 kts | 129° |
| 2026-04-28 13:07 | 46.67863 | -87.88811 | 34671 ft | 456 kts | 129° |
| 2026-04-28 13:08 | 46.64153 | -87.81317 | 34670 ft | 457 kts | 129° |
| 2026-04-28 13:08 | 46.60424 | -87.73798 | 34676 ft | 458 kts | 129° |
| 2026-04-28 13:09 | 46.56696 | -87.66304 | 34663 ft | 457 kts | 130° |
| 2026-04-28 13:09 | 46.52960 | -87.58814 | 34663 ft | 460 kts | 129° |
| 2026-04-28 13:10 | 46.49213 | -87.51325 | 34660 ft | 456 kts | 129° |
| 2026-04-28 13:10 | 46.45488 | -87.43897 | 34665 ft | 455 kts | 129° |
| 2026-04-28 13:11 | 46.41780 | -87.36524 | 34659 ft | 455 kts | 129° |
| 2026-04-28 13:11 | 46.38043 | -87.29112 | 34654 ft | 455 kts | 129° |
| 2026-04-28 13:12 | 46.34303 | -87.21715 | 34656 ft | 455 kts | 129° |
| 2026-04-28 13:12 | 46.30551 | -87.14314 | 34652 ft | 457 kts | 129° |
| 2026-04-28 13:13 | 46.26787 | -87.06908 | 34644 ft | 457 kts | 129° |
| 2026-04-28 13:13 | 46.23019 | -86.99513 | 34645 ft | 457 kts | 130° |
| 2026-04-28 13:14 | 46.19250 | -86.92136 | 34624 ft | 457 kts | 130° |
| 2026-04-28 13:14 | 46.15473 | -86.84761 | 34623 ft | 457 kts | 130° |
| 2026-04-28 13:15 | 46.11690 | -86.77398 | 34608 ft | 457 kts | 130° |
| 2026-04-28 13:15 | 46.07897 | -86.70029 | 34636 ft | 459 kts | 130° |
| 2026-04-28 13:16 | 46.04089 | -86.62656 | 34620 ft | 458 kts | 130° |
| 2026-04-28 13:16 | 46.00308 | -86.55351 | 34625 ft | 458 kts | 130° |
| 2026-04-28 13:17 | 45.96492 | -86.47999 | 34634 ft | 458 kts | 130° |
| 2026-04-28 13:17 | 45.92678 | -86.40669 | 34634 ft | 458 kts | 130° |
| 2026-04-28 13:18 | 45.88860 | -86.33352 | 34628 ft | 458 kts | 130° |
| 2026-04-28 13:18 | 45.85027 | -86.26023 | 34640 ft | 459 kts | 130° |
| 2026-04-28 13:19 | 45.81193 | -86.18712 | 34645 ft | 459 kts | 130° |
| 2026-04-28 13:19 | 45.77353 | -86.11409 | 34643 ft | 459 kts | 131° |
| 2026-04-28 13:20 | 45.73508 | -86.04117 | 34634 ft | 459 kts | 131° |
| 2026-04-28 13:20 | 45.69661 | -85.96836 | 34636 ft | 459 kts | 131° |
| 2026-04-28 13:21 | 45.65802 | -85.89554 | 34656 ft | 460 kts | 131° |
| 2026-04-28 13:21 | 45.61961 | -85.82323 | 34667 ft | 460 kts | 131° |
| 2026-04-28 13:22 | 45.58068 | -85.75014 | 34669 ft | 459 kts | 131° |
| 2026-04-28 13:22 | 45.54195 | -85.67762 | 34669 ft | 459 kts | 131° |
| 2026-04-28 13:23 | 45.50346 | -85.60572 | 34671 ft | 459 kts | 131° |
| 2026-04-28 13:23 | 45.46463 | -85.53337 | 34669 ft | 460 kts | 131° |
| 2026-04-28 13:24 | 45.42567 | -85.46098 | 34674 ft | 461 kts | 132° |
| 2026-04-28 13:24 | 45.38667 | -85.38869 | 34675 ft | 460 kts | 132° |
| 2026-04-28 13:25 | 45.34766 | -85.31656 | 34675 ft | 460 kts | 132° |
| 2026-04-28 13:25 | 45.30863 | -85.24456 | 34718 ft | 460 kts | 132° |
| 2026-04-28 13:26 | 45.26952 | -85.17264 | 34697 ft | 460 kts | 133° |
| 2026-04-28 13:26 | 45.23037 | -85.10077 | 34704 ft | 460 kts | 133° |
| 2026-04-28 13:27 | 45.19118 | -85.02904 | 34708 ft | 460 kts | 133° |
| 2026-04-28 13:27 | 45.15192 | -84.95731 | 34707 ft | 460 kts | 133° |
| 2026-04-28 13:28 | 45.11272 | -84.88586 | 34708 ft | 459 kts | 133° |
| 2026-04-28 13:28 | 45.07349 | -84.81453 | 34685 ft | 459 kts | 133° |
| 2026-04-28 13:29 | 45.03422 | -84.74331 | 34709 ft | 460 kts | 133° |
| 2026-04-28 13:29 | 44.99567 | -84.67103 | 34676 ft | 461 kts | 131° |
| 2026-04-28 13:30 | 44.95764 | -84.59827 | 34677 ft | 460 kts | 133° |
| 2026-04-28 13:30 | 44.91956 | -84.52567 | 34685 ft | 460 kts | 133° |
| 2026-04-28 13:31 | 44.86240 | -84.41706 | 34680 ft | 460 kts | 133° |
| 2026-04-28 13:31 | 44.82422 | -84.34476 | 34668 ft | 460 kts | 133° |
| 2026-04-28 13:32 | 44.78602 | -84.27260 | 34658 ft | 460 kts | 133° |
| 2026-04-28 13:32 | 44.74776 | -84.20049 | 34670 ft | 460 kts | 133° |
| 2026-04-28 13:33 | 44.70948 | -84.12854 | 34666 ft | 459 kts | 133° |
| 2026-04-28 13:33 | 44.67141 | -84.05716 | 34670 ft | 459 kts | 133° |
| 2026-04-28 13:34 | 44.63307 | -83.98544 | 34671 ft | 459 kts | 133° |
| 2026-04-28 13:34 | 44.59467 | -83.91379 | 34675 ft | 459 kts | 134° |
| 2026-04-28 13:35 | 44.55622 | -83.84223 | 34676 ft | 459 kts | 134° |
| 2026-04-28 13:35 | 44.51799 | -83.77050 | 34684 ft | 460 kts | 133° |
| 2026-04-28 13:36 | 44.48004 | -83.69842 | 34680 ft | 459 kts | 133° |
| 2026-04-28 13:36 | 44.44208 | -83.62663 | 34672 ft | 453 kts | 134° |
| 2026-04-28 13:37 | 44.42357 | -83.59166 | 34494 ft | 442 kts | 134° |
| 2026-04-28 13:37 | 44.40534 | -83.55732 | 34071 ft | 439 kts | 134° |
| 2026-04-28 13:37 | 44.38717 | -83.52312 | 33507 ft | 438 kts | 134° |
| 2026-04-28 13:37 | 44.36901 | -83.48898 | 32907 ft | 437 kts | 134° |
| 2026-04-28 13:38 | 44.35093 | -83.45501 | 32414 ft | 434 kts | 134° |
| 2026-04-28 13:38 | 44.33295 | -83.42127 | 31985 ft | 431 kts | 134° |
| 2026-04-28 13:38 | 44.31512 | -83.38784 | 31524 ft | 428 kts | 134° |
| 2026-04-28 13:38 | 44.29740 | -83.35469 | 31049 ft | 425 kts | 134° |
| 2026-04-28 13:39 | 44.27976 | -83.32170 | 30578 ft | 423 kts | 134° |
| 2026-04-28 13:39 | 44.26219 | -83.28888 | 30133 ft | 421 kts | 134° |
| 2026-04-28 13:39 | 44.24468 | -83.25623 | 29656 ft | 420 kts | 134° |
| 2026-04-28 13:39 | 44.22722 | -83.22368 | 29142 ft | 418 kts | 134° |
| 2026-04-28 13:40 | 44.20987 | -83.19139 | 28663 ft | 415 kts | 133° |
| 2026-04-28 13:40 | 44.19267 | -83.15942 | 28243 ft | 411 kts | 133° |
| 2026-04-28 13:40 | 44.17561 | -83.12773 | 27803 ft | 407 kts | 134° |
| 2026-04-28 13:40 | 44.15866 | -83.09629 | 27393 ft | 404 kts | 134° |
| 2026-04-28 13:41 | 44.14184 | -83.06511 | 26974 ft | 401 kts | 134° |
| 2026-04-28 13:41 | 44.12515 | -83.03422 | 26558 ft | 399 kts | 134° |
| 2026-04-28 13:41 | 44.10852 | -83.00346 | 26155 ft | 397 kts | 134° |
| 2026-04-28 13:41 | 44.09197 | -82.97290 | 25752 ft | 394 kts | 134° |
| 2026-04-28 13:42 | 44.07550 | -82.94250 | 25341 ft | 393 kts | 133° |
| 2026-04-28 13:42 | 44.05931 | -82.91264 | 24965 ft | 391 kts | 133° |
| 2026-04-28 13:42 | 44.04295 | -82.88253 | 24564 ft | 390 kts | 133° |
| 2026-04-28 13:42 | 44.02664 | -82.85252 | 24172 ft | 388 kts | 133° |
| 2026-04-28 13:43 | 44.01039 | -82.82265 | 23779 ft | 387 kts | 133° |
| 2026-04-28 13:43 | 43.99414 | -82.79282 | 23369 ft | 386 kts | 133° |
| 2026-04-28 13:43 | 43.97794 | -82.76311 | 22911 ft | 385 kts | 133° |
| 2026-04-28 13:43 | 43.96181 | -82.73356 | 22481 ft | 383 kts | 133° |
| 2026-04-28 13:44 | 43.94578 | -82.70423 | 22123 ft | 380 kts | 133° |
| 2026-04-28 13:44 | 43.92989 | -82.67516 | 21737 ft | 377 kts | 133° |
| 2026-04-28 13:44 | 43.91411 | -82.64634 | 21350 ft | 374 kts | 133° |
| 2026-04-28 13:44 | 43.89841 | -82.61770 | 20974 ft | 372 kts | 133° |
| 2026-04-28 13:45 | 43.88283 | -82.58929 | 20596 ft | 369 kts | 133° |
| 2026-04-28 13:45 | 43.86731 | -82.56101 | 20221 ft | 367 kts | 133° |
| 2026-04-28 13:45 | 43.85189 | -82.53296 | 19856 ft | 365 kts | 133° |
| 2026-04-28 13:45 | 43.83652 | -82.50502 | 19482 ft | 363 kts | 133° |
| 2026-04-28 13:46 | 43.82122 | -82.47723 | 19114 ft | 362 kts | 133° |
| 2026-04-28 13:46 | 43.81112 | -82.45892 | 18872 ft | 361 kts | 133° |
| 2026-04-28 13:46 | 43.79591 | -82.43135 | 18505 ft | 360 kts | 133° |
| 2026-04-28 13:46 | 43.77564 | -82.39463 | 17982 ft | 358 kts | 133° |
| 2026-04-28 13:47 | 43.76564 | -82.37652 | 17717 ft | 357 kts | 133° |
| 2026-04-28 13:47 | 43.75061 | -82.34936 | 17346 ft | 354 kts | 133° |
| 2026-04-28 13:47 | 43.73568 | -82.32239 | 16983 ft | 352 kts | 133° |
| 2026-04-28 13:47 | 43.72086 | -82.29565 | 16628 ft | 349 kts | 134° |
| 2026-04-28 13:48 | 43.70614 | -82.26909 | 16270 ft | 347 kts | 134° |
| 2026-04-28 13:48 | 43.69149 | -82.24270 | 15913 ft | 345 kts | 134° |
| 2026-04-28 13:48 | 43.67693 | -82.21651 | 15557 ft | 343 kts | 134° |
| 2026-04-28 13:48 | 43.66242 | -82.19041 | 15203 ft | 341 kts | 134° |
| 2026-04-28 13:49 | 43.64802 | -82.16454 | 14851 ft | 339 kts | 134° |
| 2026-04-28 13:49 | 43.63367 | -82.13877 | 14508 ft | 338 kts | 134° |
| 2026-04-28 13:49 | 43.61936 | -82.11311 | 14159 ft | 336 kts | 134° |
| 2026-04-28 13:49 | 43.60513 | -82.08761 | 13811 ft | 335 kts | 134° |
| 2026-04-28 13:50 | 43.59092 | -82.06218 | 13452 ft | 334 kts | 134° |
| 2026-04-28 13:50 | 43.57675 | -82.03683 | 13069 ft | 333 kts | 134° |
| 2026-04-28 13:50 | 43.56266 | -82.01163 | 12711 ft | 331 kts | 134° |
| 2026-04-28 13:50 | 43.54867 | -81.98666 | 12331 ft | 329 kts | 134° |
| 2026-04-28 13:51 | 43.53475 | -81.96181 | 12014 ft | 325 kts | 134° |
| 2026-04-28 13:51 | 43.52102 | -81.93734 | 11768 ft | 321 kts | 134° |
| 2026-04-28 13:51 | 43.50728 | -81.91287 | 11469 ft | 318 kts | 134° |
| 2026-04-28 13:51 | 43.49393 | -81.88912 | 11137 ft | 317 kts | 134° |
| 2026-04-28 13:52 | 43.48047 | -81.86519 | 10801 ft | 315 kts | 134° |
| 2026-04-28 13:52 | 43.46708 | -81.84139 | 10472 ft | 314 kts | 134° |
| 2026-04-28 13:52 | 43.45372 | -81.81768 | 10143 ft | 313 kts | 135° |
| 2026-04-28 13:52 | 43.44050 | -81.79422 | 9920 ft | 308 kts | 135° |
| 2026-04-28 13:53 | 43.42741 | -81.77102 | 9602 ft | 307 kts | 135° |
| 2026-04-28 13:53 | 43.41435 | -81.74787 | 9238 ft | 306 kts | 135° |
| 2026-04-28 13:53 | 43.40135 | -81.72485 | 8891 ft | 304 kts | 135° |
| 2026-04-28 13:53 | 43.38842 | -81.70200 | 8590 ft | 302 kts | 135° |
| 2026-04-28 13:54 | 43.37553 | -81.67922 | 8275 ft | 302 kts | 134° |
| 2026-04-28 13:54 | 43.36262 | -81.65643 | 7919 ft | 302 kts | 134° |
| 2026-04-28 13:54 | 43.34974 | -81.63369 | 7608 ft | 301 kts | 134° |
| 2026-04-28 13:54 | 43.33689 | -81.61104 | 7321 ft | 301 kts | 134° |
| 2026-04-28 13:55 | 43.32399 | -81.58832 | 6974 ft | 302 kts | 134° |
| 2026-04-28 13:55 | 43.31106 | -81.56557 | 6620 ft | 302 kts | 134° |
| 2026-04-28 13:55 | 43.29818 | -81.54291 | 6316 ft | 300 kts | 134° |
| 2026-04-28 13:55 | 43.28534 | -81.52034 | 5984 ft | 299 kts | 134° |
| 2026-04-28 13:56 | 43.27255 | -81.49789 | 5661 ft | 298 kts | 134° |
| 2026-04-28 13:56 | 43.25996 | -81.47579 | 5333 ft | 290 kts | 134° |
| 2026-04-28 13:56 | 43.24773 | -81.45433 | 5123 ft | 279 kts | 134° |
| 2026-04-28 13:56 | 43.23631 | -81.43427 | 5043 ft | 256 kts | 135° |
| 2026-04-28 13:57 | 43.22568 | -81.41563 | 4897 ft | 240 kts | 135° |
| 2026-04-28 13:57 | 43.21583 | -81.39836 | 4762 ft | 219 kts | 135° |
| 2026-04-28 13:57 | 43.20669 | -81.38237 | 4610 ft | 210 kts | 136° |
| 2026-04-28 13:57 | 43.19780 | -81.36689 | 4490 ft | 209 kts | 136° |
| 2026-04-28 13:58 | 43.18884 | -81.35126 | 4382 ft | 209 kts | 136° |
| 2026-04-28 13:58 | 43.17997 | -81.33548 | 4265 ft | 210 kts | 132° |
| 2026-04-28 13:58 | 43.17134 | -81.31950 | 4128 ft | 207 kts | 138° |
| 2026-04-28 13:58 | 43.16168 | -81.30523 | 3977 ft | 200 kts | 143° |
| 2026-04-28 13:59 | 43.15219 | -81.29282 | 3744 ft | 178 kts | 147° |
| 2026-04-28 13:59 | 43.14337 | -81.28195 | 3562 ft | 167 kts | 149° |
| 2026-04-28 13:59 | 43.13472 | -81.27156 | 3345 ft | 164 kts | 150° |
| 2026-04-28 13:59 | 43.12621 | -81.26131 | 3141 ft | 163 kts | 150° |
| 2026-04-28 14:00 | 43.11775 | -81.25110 | 2928 ft | 161 kts | 150° |
| 2026-04-28 14:00 | 43.10942 | -81.24104 | 2720 ft | 158 kts | 150° |
| 2026-04-28 14:00 | 43.10123 | -81.23115 | 2517 ft | 156 kts | 150° |
| 2026-04-28 14:00 | 43.09314 | -81.22137 | 2300 ft | 154 kts | 151° |
| 2026-04-28 14:01 | 43.08515 | -81.21170 | 2104 ft | 153 kts | 151° |
| 2026-04-28 14:01 | 43.07727 | -81.20219 | 1889 ft | 149 kts | 150° |
| 2026-04-28 14:01 | 43.06961 | -81.19298 | 1691 ft | 145 kts | 147° |
| 2026-04-28 14:01 | 43.06213 | -81.18396 | 1483 ft | 141 kts | 145° |
| 2026-04-28 14:02 | 43.05484 | -81.17516 | 1269 ft | 138 kts | 146° |
| 2026-04-28 14:02 | 43.04777 | -81.16647 | 1122 ft | 136 kts | 145° |
| 2026-04-28 14:02 | 43.04061 | -81.15798 | 934 ft | 133 kts | 148° |
| 2026-04-28 14:02 | 43.03471 | -81.15098 | 912 ft | 79 kts | 139° |
| 2026-04-28 14:03 | 43.03188 | -81.14761 | 910 ft | 46 kts | 139° |
| 2026-04-28 14:03 | 43.03011 | -81.14552 | 914 ft | 20 kts | 155° |
| 2026-04-28 14:03 | 43.02915 | -81.14617 | 910 ft | 12 kts | 227° |
| 2026-04-28 14:03 | 43.02879 | -81.14673 | 914 ft | 5 kts | 236° |
| 2026-04-28 14:04 | 43.02878 | -81.14696 | 911 ft | 1 kts | 288° |
| 2026-04-28 14:04 | 43.02880 | -81.14700 | 911 ft | 2 kts | 303° |
| 2026-04-28 14:04 | 43.02892 | -81.14714 | 911 ft | 3 kts | 319° |
| 2026-04-28 14:04 | 43.02914 | -81.14753 | 915 ft | 6 kts | 278° |
| 2026-04-28 14:05 | 43.02909 | -81.14803 | 911 ft | 4 kts | 261° |
| 2026-04-28 14:05 | 43.02907 | -81.14822 | 911 ft | 1 kts | 259° |
| 2026-04-28 14:05 | 43.02906 | -81.14827 | 911 ft | 0 kts | 260° |